createdAt,value
2023-04-15T05:53:47.020Z,101093.92
2023-04-15T05:56:20.603Z,101101.33
2023-04-15T05:58:50.531Z,101096.20
2023-04-15T06:01:24.353Z,101094.74
2023-04-15T06:03:54.479Z,101095.16
2023-04-15T06:06:23.136Z,101097.85
2023-04-15T06:47:06.442Z,101152.96
2023-04-15T06:49:35.671Z,101154.46
2023-04-15T06:52:05.243Z,101147.01
2023-04-15T06:54:34.857Z,101154.22
2023-04-15T06:57:03.512Z,101162.52
2023-04-15T06:59:32.025Z,101165.20
2023-04-15T07:02:01.851Z,101165.94
2023-04-15T07:04:30.473Z,101174.61
2023-04-15T07:06:58.979Z,101173.52
2023-04-15T07:09:27.530Z,101178.47
2023-04-15T07:11:56.785Z,101174.46
2023-04-15T07:14:25.977Z,101177.59
2023-04-15T07:16:56.706Z,101173.82
2023-04-15T07:19:26.045Z,101177.87
2023-04-15T07:21:55.153Z,101181.24
2023-04-15T07:24:26.885Z,101187.80
2023-04-15T07:27:00.882Z,101190.62
2023-04-15T07:29:31.677Z,101198.71
2023-04-15T07:31:59.898Z,101195.67
2023-04-15T07:34:30.752Z,101194.33
2023-04-15T07:37:00.203Z,101197.14
2023-04-15T07:39:29.469Z,101196.42
2023-04-15T07:41:59.242Z,101206.01
2023-04-15T07:44:28.180Z,101207.13
2023-04-15T07:46:57.187Z,101201.55
2023-04-15T07:49:32.314Z,101208.50
2023-04-15T07:52:01.523Z,101207.25
2023-04-15T07:54:30.575Z,101211.08
2023-04-15T07:56:59.429Z,101211.84
2023-04-15T07:59:33.799Z,101210.55
2023-04-15T08:02:02.834Z,101209.81
2023-04-15T08:04:31.659Z,101208.67
2023-04-15T08:07:05.088Z,101201.86
2023-04-15T08:09:46.574Z,101207.23
2023-04-15T08:12:15.174Z,101206.73
2023-04-15T08:14:53.827Z,101202.92
2023-04-15T08:17:24.013Z,101202.04
2023-04-15T08:19:53.998Z,101204.64
2023-04-15T08:22:22.776Z,101205.17
2023-04-15T08:24:58.339Z,101207.45
2023-04-15T08:27:27.804Z,101201.57
2023-04-15T08:29:56.216Z,101208.63
2023-04-15T08:32:26.363Z,101198.52
2023-04-15T08:35:00.874Z,101193.05
2023-04-15T08:37:30.174Z,101189.79
2023-04-15T08:39:58.559Z,101191.35
2023-04-15T08:42:32.831Z,101192.52
2023-04-15T08:45:02.481Z,101193.46
2023-04-15T08:47:34.642Z,101192.51
2023-04-15T08:50:04.605Z,101200.43
2023-04-15T08:52:35.015Z,101199.52
2023-04-15T08:55:03.882Z,101201.71
2023-04-15T08:57:32.461Z,101199.83
2023-04-15T09:00:03.008Z,101201.80
2023-04-15T09:02:33.193Z,101201.58
2023-04-15T09:05:02.539Z,101219.13
2023-04-15T09:07:34.394Z,101223.13
2023-04-15T09:10:04.410Z,101229.17
2023-04-15T09:12:37.168Z,101227.03
2023-04-15T09:15:06.267Z,101227.52
2023-04-15T09:17:35.792Z,101230.70
2023-04-15T09:20:22.637Z,101223.39
2023-04-15T09:22:52.198Z,101228.96
2023-04-15T09:25:27.807Z,101229.04
2023-04-15T09:28:00.704Z,101232.10
2023-04-15T09:30:29.709Z,101231.04
2023-04-15T09:32:59.742Z,101229.18
2023-04-15T09:35:29.034Z,101238.98
2023-04-15T09:38:07.669Z,101224.96
2023-04-15T09:40:38.264Z,101226.38
2023-04-15T09:43:07.399Z,101236.16
2023-04-15T09:45:36.621Z,101245.05
2023-04-15T09:48:35.771Z,101244.13
2023-04-15T09:51:04.409Z,101242.12
2023-04-15T09:53:36.835Z,101248.34
2023-04-15T09:56:08.152Z,101243.66
2023-04-15T09:58:38.950Z,101251.90
2023-04-15T10:01:09.454Z,101254.34
2023-04-15T10:03:38.908Z,101250.61
2023-04-15T10:06:08.159Z,101260.54
2023-04-15T10:08:39.895Z,101259.42
2023-04-15T10:11:08.905Z,101259.23
2023-04-15T10:13:39.464Z,101259.95
2023-04-15T10:16:11.432Z,101270.81
2023-04-15T10:18:43.158Z,101263.21
2023-04-15T10:21:12.277Z,101266.22
2023-04-15T10:23:41.003Z,101275.54
2023-04-15T10:26:09.524Z,101277.23
2023-04-15T10:28:39.236Z,101290.38
2023-04-15T10:31:07.912Z,101287.30
2023-04-15T10:33:36.565Z,101286.00
2023-04-15T10:36:05.355Z,101290.54
2023-04-15T10:38:35.483Z,101296.20
2023-04-15T10:41:24.222Z,101294.98
2023-04-15T10:43:56.289Z,101297.21
2023-04-15T10:46:44.359Z,101296.48
2023-04-15T10:49:13.048Z,101298.86
2023-04-15T10:51:43.206Z,101300.11
2023-04-15T10:54:16.419Z,101291.27
2023-04-15T10:56:45.206Z,101290.19
2023-04-15T10:59:14.248Z,101289.88
2023-04-15T11:02:01.412Z,101288.90
2023-04-15T11:05:02.019Z,101289.89
2023-04-15T11:07:37.169Z,101281.36
2023-04-15T11:10:14.841Z,101281.59
2023-04-15T11:12:47.187Z,101281.34
2023-04-15T11:15:33.644Z,101282.61
2023-04-15T11:18:19.641Z,101279.22
2023-04-15T11:21:03.869Z,101281.28
2023-04-15T11:23:33.712Z,101279.90
2023-04-15T11:26:05.845Z,101282.07
2023-04-15T11:28:36.788Z,101270.83
2023-04-15T11:31:07.569Z,101272.28
2023-04-15T11:33:37.170Z,101275.67
2023-04-15T11:36:06.160Z,101273.11
2023-04-15T11:38:34.942Z,101283.66
2023-04-15T11:41:03.578Z,101279.15
2023-04-15T11:43:32.611Z,101280.09
2023-04-15T11:46:02.126Z,101276.10
2023-04-15T11:48:35.174Z,101275.60
2023-04-15T11:51:05.472Z,101276.84
2023-04-15T11:53:40.907Z,101275.41
2023-04-15T11:56:19.592Z,101272.40
2023-04-15T11:58:50.985Z,101275.30
2023-04-15T12:01:19.488Z,101271.04
2023-04-15T12:03:49.787Z,101280.59
2023-04-15T12:06:22.835Z,101276.39
2023-04-15T12:08:52.926Z,101281.91
2023-04-15T12:11:29.783Z,101278.10
2023-04-15T12:14:09.975Z,101275.95
2023-04-15T12:16:51.609Z,101277.48
2023-04-15T12:19:26.201Z,101273.42
2023-04-15T12:22:00.376Z,101278.23
2023-04-15T12:24:32.144Z,101277.70
2023-04-15T12:27:05.894Z,101278.61
2023-04-15T12:29:36.284Z,101277.76
2023-04-15T12:32:15.112Z,101279.64
2023-04-15T12:34:51.937Z,101277.13
2023-04-15T12:37:20.641Z,101281.55
2023-04-15T12:39:49.892Z,101277.55
2023-04-15T12:42:19.183Z,101277.82
2023-04-15T12:44:47.733Z,101278.19
2023-04-15T12:47:16.691Z,101276.37
2023-04-15T12:49:45.941Z,101271.27
2023-04-15T12:52:15.335Z,101277.18
2023-04-15T12:54:43.813Z,101280.02
2023-04-15T12:57:12.608Z,101291.55
2023-04-15T12:59:41.135Z,101283.88
2023-04-15T13:02:09.700Z,101287.61
2023-04-15T13:04:38.391Z,101293.39
2023-04-15T13:07:07.514Z,101286.14
2023-04-15T13:09:36.406Z,101286.69
2023-04-15T13:12:05.666Z,101286.59
2023-04-15T13:14:34.939Z,101284.95
2023-04-15T13:17:09.089Z,101285.45
2023-04-15T13:19:37.817Z,101289.41
2023-04-15T13:22:08.634Z,101290.35
2023-04-15T13:24:37.526Z,101305.23
2023-04-15T13:27:07.398Z,101289.72
2023-04-15T13:29:35.823Z,101287.11
2023-04-15T13:32:04.699Z,101294.14
2023-04-15T13:34:33.609Z,101293.60
2023-04-15T13:37:08.992Z,101299.39
2023-04-15T13:39:37.971Z,101296.38
2023-04-15T13:42:06.671Z,101298.83
2023-04-15T13:44:35.471Z,101304.05
2023-04-15T13:47:03.896Z,101300.19
2023-04-15T13:49:32.977Z,101298.89
2023-04-15T13:52:01.639Z,101299.95
2023-04-15T13:54:37.836Z,101297.56
2023-04-15T13:57:07.095Z,101294.77
2023-04-15T13:59:37.488Z,101294.54
2023-04-15T14:02:06.365Z,101298.90
2023-04-15T14:04:35.026Z,101309.65
2023-04-15T14:07:05.328Z,101298.30
2023-04-15T14:09:35.582Z,101297.30
2023-04-15T14:12:05.069Z,101305.82
2023-04-15T14:14:34.858Z,101312.91
2023-04-15T14:17:04.745Z,101310.09
2023-04-15T14:19:35.702Z,101304.77
2023-04-15T14:22:04.100Z,101302.93
2023-04-15T14:24:32.656Z,101301.52
2023-04-15T14:27:02.349Z,101298.01
2023-04-15T14:29:31.620Z,101299.96
2023-04-15T14:32:11.647Z,101304.04
2023-04-15T14:34:41.684Z,101297.59
2023-04-15T14:37:10.217Z,101293.77
2023-04-15T14:39:38.973Z,101289.77
2023-04-15T14:42:08.780Z,101297.09
2023-04-15T14:44:38.184Z,101298.17
2023-04-15T14:47:06.781Z,101292.62
2023-04-15T14:49:36.916Z,101294.14
2023-04-15T14:52:05.573Z,101292.72
2023-04-15T14:54:36.104Z,101290.24
2023-04-15T14:57:04.564Z,101296.06
2023-04-15T14:59:33.373Z,101308.20
2023-04-15T15:02:02.004Z,101302.95
2023-04-15T15:04:33.192Z,101309.23
2023-04-15T15:07:02.324Z,101304.77
2023-04-15T15:09:32.002Z,101304.05
2023-04-15T15:12:02.291Z,101307.63
2023-04-15T15:14:31.364Z,101309.20
2023-04-15T15:16:59.999Z,101308.81
2023-04-15T15:19:29.072Z,101313.08
2023-04-15T15:21:58.078Z,101317.67
2023-04-15T15:24:26.536Z,101317.45
2023-04-15T15:26:55.052Z,101318.01
2023-04-15T15:29:23.956Z,101320.54
2023-04-15T15:31:52.834Z,101322.98
2023-04-15T15:34:22.311Z,101333.90
2023-04-15T15:36:50.839Z,101328.73
2023-04-15T15:39:20.580Z,101324.50
2023-04-15T15:41:49.140Z,101331.67
2023-04-15T15:44:17.606Z,101339.98
2023-04-15T15:46:46.099Z,101330.98
2023-04-15T15:49:14.623Z,101335.17
2023-04-15T15:51:43.100Z,101342.19
2023-04-15T15:54:11.835Z,101341.29
2023-04-15T15:56:40.637Z,101333.16
2023-04-15T15:59:09.109Z,101333.06
2023-04-15T16:01:37.591Z,101324.89
2023-04-15T16:04:06.473Z,101327.23
2023-04-15T16:06:35.896Z,101334.55
2023-04-15T16:09:04.814Z,101346.28
2023-04-15T16:11:33.375Z,101338.02
2023-04-15T16:14:02.671Z,101347.25
2023-04-15T16:16:31.265Z,101338.27
2023-04-15T16:18:59.991Z,101340.83
2023-04-15T16:21:29.044Z,101337.08
2023-04-15T16:23:57.728Z,101347.16
2023-04-15T16:26:26.270Z,101352.50
2023-04-15T16:28:54.850Z,101353.14
2023-04-15T16:31:23.470Z,101359.98
2023-04-15T16:33:52.020Z,101363.17
2023-04-15T16:36:20.852Z,101360.83
2023-04-15T16:38:49.484Z,101358.39
2023-04-15T16:41:18.808Z,101360.11
2023-04-15T16:43:47.276Z,101352.61
2023-04-15T16:46:16.019Z,101355.42
2023-04-15T16:48:44.709Z,101356.12
2023-04-15T16:51:13.406Z,101353.78
2023-04-15T16:53:44.675Z,101357.46
2023-04-15T16:56:13.779Z,101359.99
2023-04-15T16:58:42.505Z,101356.64
2023-04-15T17:01:11.241Z,101356.06
2023-04-15T17:03:40.567Z,101362.05
2023-04-15T17:06:09.452Z,101357.53
2023-04-15T17:08:38.376Z,101365.37
2023-04-15T17:11:06.937Z,101375.61
2023-04-15T17:13:36.496Z,101383.20
2023-04-15T17:16:05.450Z,101381.13
2023-04-15T17:18:34.026Z,101391.68
2023-04-15T17:21:03.437Z,101391.65
2023-04-15T17:23:32.173Z,101394.96
2023-04-15T17:26:01.094Z,101403.27
2023-04-15T17:28:29.659Z,101408.55
2023-04-15T17:30:58.176Z,101409.32
2023-04-15T17:33:55.966Z,101411.48
2023-04-15T17:36:15.688Z,101417.45
2023-04-15T17:38:44.637Z,101420.67
2023-04-15T17:41:13.493Z,101422.53
2023-04-15T17:43:43.362Z,101424.98
2023-04-15T17:46:13.653Z,101433.30
2023-04-15T17:48:42.380Z,101438.33
2023-04-15T17:51:10.949Z,101450.29
2023-04-15T17:53:39.793Z,101441.23
2023-04-15T17:56:08.398Z,101438.55
2023-04-15T17:58:39.431Z,101437.89
2023-04-15T18:01:08.076Z,101443.87
2023-04-15T18:03:37.000Z,101455.06
2023-04-15T18:06:06.031Z,101462.70
2023-04-15T18:08:36.707Z,101466.60
2023-04-15T18:11:05.495Z,101469.86
2023-04-15T18:13:34.948Z,101477.59
2023-04-15T18:16:03.579Z,101474.55
2023-04-15T18:18:34.195Z,101469.39
2023-04-15T18:21:02.855Z,101469.73
2023-04-15T18:23:32.072Z,101472.27
2023-04-15T18:26:01.192Z,101477.15
2023-04-15T18:28:31.158Z,101474.64
2023-04-15T18:30:59.769Z,101471.97
2023-04-15T18:33:29.296Z,101477.04
2023-04-15T18:35:58.215Z,101472.70
2023-04-15T18:38:26.890Z,101474.38
2023-04-15T18:40:55.587Z,101473.48
2023-04-15T18:43:25.555Z,101473.59
2023-04-15T18:45:55.177Z,101476.46
2023-04-15T18:48:23.764Z,101481.83
2023-04-15T18:50:54.448Z,101494.48
2023-04-15T18:53:22.994Z,101497.23
2023-04-15T18:55:51.508Z,101494.66
2023-04-15T18:58:20.778Z,101486.68
2023-04-15T19:00:49.543Z,101502.30
2023-04-15T19:03:18.413Z,101493.80
2023-04-15T19:05:46.999Z,101501.64
2023-04-15T19:08:15.538Z,101491.73
2023-04-15T19:10:44.222Z,101506.31
2023-04-15T19:13:12.780Z,101495.02
2023-04-15T19:15:41.411Z,101501.35
2023-04-15T19:18:10.784Z,101488.39
2023-04-15T19:20:40.300Z,101490.55
2023-04-15T19:23:09.004Z,101494.70
2023-04-15T19:25:38.151Z,101496.08
2023-04-15T19:28:06.650Z,101502.66
2023-04-15T19:30:36.466Z,101491.57
2023-04-15T19:33:04.953Z,101495.79
2023-04-15T19:35:34.460Z,101480.48
2023-04-15T19:38:03.467Z,101478.70
2023-04-15T19:40:32.095Z,101482.69
2023-04-15T19:43:00.697Z,101486.28
2023-04-15T19:45:29.386Z,101480.98
2023-04-15T19:47:58.501Z,101486.89
2023-04-15T19:50:27.993Z,101493.61
2023-04-15T19:52:57.259Z,101491.67
2023-04-15T19:55:25.891Z,101487.14
2023-04-15T19:57:54.726Z,101486.23
2023-04-15T20:00:23.293Z,101490.23
2023-04-15T20:02:53.613Z,101503.05
2023-04-15T20:05:22.265Z,101505.36
2023-04-15T20:07:53.140Z,101503.59
2023-04-15T20:10:21.878Z,101504.92
2023-04-15T20:12:53.209Z,101498.27
2023-04-15T20:15:24.144Z,101501.80
2023-04-15T20:17:52.721Z,101506.44
2023-04-15T20:20:21.635Z,101505.42
2023-04-15T20:22:50.099Z,101500.30
2023-04-15T20:25:18.977Z,101504.14
2023-04-15T20:27:47.668Z,101507.21
2023-04-15T20:30:16.223Z,101492.96
2023-04-15T20:32:45.397Z,101493.70
2023-04-15T20:35:14.200Z,101495.50
2023-04-15T20:37:44.112Z,101492.95
2023-04-15T20:40:14.360Z,101497.75
2023-04-15T20:42:43.905Z,101508.03
2023-04-15T20:45:12.268Z,101494.20
2023-04-15T20:47:40.953Z,101491.09
2023-04-15T20:50:09.802Z,101495.48
2023-04-15T20:52:39.515Z,101497.30
2023-04-15T20:55:08.371Z,101503.45
2023-04-15T20:57:36.884Z,101498.06
2023-04-15T21:00:06.418Z,101487.84
2023-04-15T21:02:35.191Z,101508.83
2023-04-15T21:05:04.121Z,101499.95
2023-04-15T21:07:32.893Z,101507.93
2023-04-15T21:10:01.388Z,101509.86
2023-04-15T21:12:30.059Z,101511.05
2023-04-15T21:14:58.515Z,101509.04
2023-04-15T21:17:27.160Z,101506.70
2023-04-15T21:19:55.802Z,101512.33
2023-04-15T21:22:24.263Z,101515.42
2023-04-15T21:24:52.892Z,101529.25
2023-04-15T21:27:21.587Z,101527.74
2023-04-15T21:29:50.079Z,101523.00
2023-04-15T21:32:18.653Z,101527.20
2023-04-15T21:34:47.620Z,101536.90
2023-04-15T21:37:15.994Z,101534.97
2023-04-15T21:39:44.396Z,101537.69
2023-04-15T21:42:12.872Z,101530.20
2023-04-15T21:44:41.607Z,101532.16
2023-04-15T21:47:10.562Z,101529.48
2023-04-15T21:49:39.412Z,101527.34
2023-04-15T21:52:08.064Z,101523.70
2023-04-15T21:54:38.214Z,101523.17
2023-04-15T21:57:06.732Z,101522.54
2023-04-15T21:59:36.265Z,101525.72
2023-04-15T22:02:04.804Z,101525.25
2023-04-15T22:04:33.471Z,101522.40
2023-04-15T22:07:02.607Z,101520.10
2023-04-15T22:09:31.455Z,101515.78
2023-04-15T22:12:00.114Z,101521.02
2023-04-15T22:14:30.219Z,101527.42
2023-04-15T22:16:58.716Z,101518.64
2023-04-15T22:19:27.541Z,101518.05
2023-04-15T22:21:56.219Z,101514.87
2023-04-15T22:24:34.472Z,101515.56
2023-04-15T22:27:08.532Z,101527.88
2023-04-15T22:29:37.064Z,101526.98
2023-04-15T22:32:05.822Z,101524.59
2023-04-15T22:34:35.036Z,101524.59
2023-04-15T22:37:03.753Z,101530.61
2023-04-15T22:39:32.187Z,101520.30
2023-04-15T22:42:01.666Z,101520.73
2023-04-15T22:44:30.181Z,101518.44
2023-04-15T22:46:58.640Z,101516.59
2023-04-15T22:49:27.611Z,101523.63
2023-04-15T22:51:56.247Z,101527.45
2023-04-15T22:54:24.985Z,101522.10
2023-04-15T22:56:53.408Z,101521.13
2023-04-15T22:59:21.782Z,101532.17
2023-04-15T23:01:50.373Z,101527.76
2023-04-15T23:04:22.880Z,101537.70
2023-04-15T23:06:56.886Z,101546.48
2023-04-15T23:09:28.564Z,101539.73
2023-04-15T23:11:57.385Z,101532.71
2023-04-15T23:14:28.289Z,101528.98
2023-04-15T23:16:57.246Z,101535.67
2023-04-15T23:19:25.602Z,101533.57
2023-04-15T23:21:54.064Z,101535.14
2023-04-15T23:24:22.350Z,101535.73
2023-04-15T23:26:51.028Z,101532.94
2023-04-15T23:29:19.415Z,101528.76
2023-04-15T23:31:47.921Z,101532.64
2023-04-15T23:34:16.524Z,101534.92
2023-04-15T23:36:44.929Z,101537.73
2023-04-15T23:39:13.766Z,101539.17
2023-04-15T23:41:42.224Z,101538.92
2023-04-15T23:44:10.600Z,101541.42
2023-04-15T23:46:39.757Z,101540.33
2023-04-15T23:49:08.417Z,101546.43
2023-04-15T23:51:38.201Z,101544.48
2023-04-15T23:54:06.890Z,101553.84
2023-04-15T23:56:35.147Z,101552.27
2023-04-15T23:59:03.862Z,101560.85
